Time;durP1;ratioP1;P1;durP2;ratioP2;P2;SDS_P1;SDS_P2;PMS_P1;PMS_P2;Temp;Humidity;BMP_temperature;BMP_pressure;BME280_temperature;BME280_humidity;BME280_pressure;Samples;Min_cycle;Max_cycle;Signal;HPM_P1;HPM_P2
2021/05/09 00:01:39;;;;;;;3.92;3.35;;;15.30;99.90;;;;;;5068299;28;20445;-79
2021/05/09 00:04:05;;;;;;;5.32;3.40;;;15.20;99.90;;;;;;5067819;28;20081;-73
2021/05/09 00:06:31;;;;;;;5.15;3.60;;;15.20;99.90;;;;;;5061923;28;20481;-73
2021/05/09 00:08:57;;;;;;;5.38;3.22;;;15.20;99.90;;;;;;5070210;28;20040;-73
2021/05/09 00:11:23;;;;;;;6.35;3.72;;;15.10;99.90;;;;;;5063263;28;20028;-71
2021/05/09 00:13:48;;;;;;;7.60;3.70;;;15.10;99.90;;;;;;5064637;28;20377;-71
2021/05/09 00:16:14;;;;;;;5.82;3.33;;;15.20;99.90;;;;;;5064343;28;20036;-73
2021/05/09 00:18:40;;;;;;;5.63;3.63;;;15.10;99.90;;;;;;5045110;28;20025;-69
2021/05/09 00:21:06;;;;;;;6.32;3.67;;;15.00;99.90;;;;;;5066584;28;20554;-72
2021/05/09 00:23:31;;;;;;;6.07;3.75;;;15.10;99.90;;;;;;5063596;28;20025;-70
2021/05/09 00:25:57;;;;;;;6.72;3.58;;;15.10;99.90;;;;;;5064103;28;20048;-72
2021/05/09 00:28:23;;;;;;;7.43;3.53;;;15.10;99.90;;;;;;5061389;28;20021;-80
2021/05/09 00:30:49;;;;;;;9.30;3.63;;;15.10;99.90;;;;;;5053823;28;20512;-70
2021/05/09 00:33:14;;;;;;;7.45;3.65;;;15.10;99.90;;;;;;5057990;28;20377;-71
2021/05/09 00:35:40;;;;;;;9.55;4.13;;;15.10;99.90;;;;;;5060722;28;20025;-72
2021/05/09 00:38:06;;;;;;;8.93;4.40;;;15.10;99.90;;;;;;5068959;28;20099;-73
2021/05/09 00:40:32;;;;;;;6.28;4.00;;;15.10;99.90;;;;;;5051840;28;20029;-72
2021/05/09 00:42:58;;;;;;;10.88;4.68;;;15.10;99.90;;;;;;5065226;28;20032;-70
2021/05/09 00:45:24;;;;;;;5.18;4.05;;;15.00;99.90;;;;;;5065033;28;20073;-70
2021/05/09 00:47:50;;;;;;;7.25;4.32;;;15.10;99.90;;;;;;5058506;28;20013;-70
2021/05/09 00:50:16;;;;;;;5.63;4.38;;;15.10;99.90;;;;;;5063757;28;20440;-72
2021/05/09 00:52:45;;;;;;;6.85;3.83;;;15.10;99.90;;;;;;5058573;28;20103;-81
2021/05/09 00:55:12;;;;;;;10.40;4.90;;;15.10;99.90;;;;;;5061761;28;20036;-81
2021/05/09 00:57:39;;;;;;;8.15;4.45;;;15.10;99.90;;;;;;5054642;28;20028;-78
2021/05/09 01:00:07;;;;;;;5.95;4.55;;;15.00;99.90;;;;;;5052591;28;20045;-81
2021/05/09 01:02:33;;;;;;;9.75;4.30;;;14.90;99.90;;;;;;5058722;28;20017;-81
2021/05/09 01:04:59;;;;;;;8.27;5.03;;;14.90;99.90;;;;;;5059128;28;20025;-80
2021/05/09 01:07:24;;;;;;;6.22;4.00;;;14.70;99.90;;;;;;5059246;28;20063;-81
2021/05/09 01:09:50;;;;;;;8.05;4.47;;;14.70;99.90;;;;;;5068993;28;20040;-80
2021/05/09 01:12:16;;;;;;;5.38;3.83;;;14.70;99.90;;;;;;5069454;28;20494;-80
2021/05/09 01:14:42;;;;;;;7.68;4.03;;;14.70;99.90;;;;;;5060179;28;20089;-81
2021/05/09 01:17:11;;;;;;;6.50;4.10;;;14.60;99.90;;;;;;5067515;28;20028;-81
2021/05/09 01:19:37;;;;;;;8.82;4.80;;;14.50;99.90;;;;;;5067881;28;20028;-82
2021/05/09 01:22:05;;;;;;;6.78;4.18;;;14.60;99.90;;;;;;5060857;28;20032;-81
2021/05/09 01:24:31;;;;;;;7.10;4.35;;;14.50;99.90;;;;;;5064401;28;20017;-79
2021/05/09 01:26:57;;;;;;;6.68;4.20;;;14.50;99.90;;;;;;5050525;28;20385;-81
2021/05/09 01:29:23;;;;;;;6.25;4.43;;;14.40;99.90;;;;;;5067407;28;20066;-81
2021/05/09 01:31:51;;;;;;;5.90;4.80;;;14.30;99.90;;;;;;5069473;28;20426;-76
2021/05/09 01:34:17;;;;;;;6.75;4.97;;;14.30;99.90;;;;;;5064313;28;20118;-81
2021/05/09 01:36:43;;;;;;;8.50;4.50;;;14.20;99.90;;;;;;5072417;28;20017;-81
2021/05/09 01:39:09;;;;;;;6.20;4.90;;;14.30;99.90;;;;;;5069811;28;20035;-80
2021/05/09 01:41:35;;;;;;;8.18;4.75;;;14.10;99.90;;;;;;5063836;28;20103;-79
2021/05/09 01:44:00;;;;;;;7.22;4.50;;;14.10;99.90;;;;;;5069899;28;20051;-79
2021/05/09 01:46:26;;;;;;;6.60;5.30;;;14.00;99.90;;;;;;5051701;28;20072;-80
2021/05/09 01:48:52;;;;;;;8.98;5.05;;;14.00;99.90;;;;;;5060600;28;20040;-80
2021/05/09 01:51:19;;;;;;;10.20;4.78;;;14.00;99.90;;;;;;5064481;28;20033;-80
2021/05/09 01:53:46;;;;;;;10.25;4.85;;;14.00;99.90;;;;;;5063601;28;20021;-74
2021/05/09 01:56:14;;;;;;;8.05;4.97;;;14.00;99.90;;;;;;5061965;28;20027;-79
2021/05/09 01:58:41;;;;;;;7.68;4.75;;;13.80;99.90;;;;;;5061830;28;20075;-79
2021/05/09 02:01:07;;;;;;;9.73;5.53;;;13.90;99.90;;;;;;5046165;28;20106;-77
2021/05/09 02:03:33;;;;;;;10.32;4.85;;;13.90;99.90;;;;;;5065054;28;20017;-80
2021/05/09 02:05:59;;;;;;;6.68;4.53;;;13.90;99.90;;;;;;5066963;28;20155;-80
2021/05/09 02:08:24;;;;;;;7.80;4.60;;;13.90;99.90;;;;;;5067306;28;20079;-78
2021/05/09 02:10:51;;;;;;;9.25;5.07;;;14.00;99.90;;;;;;5071642;28;20033;-81
2021/05/09 02:13:16;;;;;;;8.30;5.85;;;13.90;99.90;;;;;;5066124;28;20040;-80
2021/05/09 02:15:42;;;;;;;7.82;5.15;;;13.80;99.90;;;;;;5064483;28;20485;-80
2021/05/09 02:18:08;;;;;;;5.25;4.65;;;13.80;99.90;;;;;;5071079;28;20039;-81
2021/05/09 02:20:33;;;;;;;8.60;5.20;;;13.70;99.90;;;;;;5066739;28;20036;-81
2021/05/09 02:22:59;;;;;;;6.88;4.72;;;13.70;99.90;;;;;;5068294;28;20112;-80
2021/05/09 02:25:25;;;;;;;7.93;5.75;;;13.70;99.90;;;;;;5071730;28;20033;-75
2021/05/09 02:27:50;;;;;;;9.15;5.72;;;13.60;99.90;;;;;;5063976;28;20041;-74
2021/05/09 02:30:16;;;;;;;8.35;5.35;;;13.70;99.90;;;;;;5062214;28;20440;-71
2021/05/09 02:32:42;;;;;;;6.55;5.30;;;13.70;99.90;;;;;;5062120;28;20028;-70
2021/05/09 02:35:08;;;;;;;6.97;5.30;;;13.70;99.90;;;;;;5069410;28;20083;-76
2021/05/09 02:37:34;;;;;;;8.20;5.03;;;13.70;99.90;;;;;;5068889;28;20028;-75
2021/05/09 02:40:00;;;;;;;7.15;5.15;;;13.70;99.90;;;;;;5065717;28;20029;-79
2021/05/09 02:42:25;;;;;;;6.53;5.00;;;13.70;99.90;;;;;;5043035;28;20381;-71
2021/05/09 02:44:51;;;;;;;7.40;4.85;;;13.70;99.90;;;;;;5066457;28;20028;-79
2021/05/09 02:47:29;;;;;;;6.43;4.85;;;13.70;99.90;;;;;;5054395;28;20028;-79
2021/05/09 02:50:00;;;;;;;6.55;4.50;;;13.70;99.90;;;;;;5071115;28;20044;-77
2021/05/09 02:52:26;;;;;;;11.13;5.32;;;13.70;99.90;;;;;;5050583;28;20505;-76
2021/05/09 02:54:52;;;;;;;7.75;5.63;;;13.70;99.90;;;;;;5059814;28;20040;-76
2021/05/09 02:57:18;;;;;;;10.52;5.75;;;13.70;99.90;;;;;;5067401;28;20028;-70
2021/05/09 02:59:44;;;;;;;7.32;5.90;;;13.60;99.90;;;;;;5050982;28;20020;-79
2021/05/09 03:02:10;;;;;;;6.47;4.57;;;13.70;99.90;;;;;;5062112;28;20027;-75
2021/05/09 03:04:36;;;;;;;5.55;4.85;;;13.60;99.90;;;;;;5070206;28;20377;-78
2021/05/09 03:07:01;;;;;;;8.93;4.95;;;13.50;99.90;;;;;;5049435;28;20125;-79
2021/05/09 03:09:27;;;;;;;6.85;4.65;;;13.50;99.90;;;;;;5062142;28;20053;-79
2021/05/09 03:11:53;;;;;;;11.25;4.88;;;13.40;99.90;;;;;;5068186;28;20113;-77
2021/05/09 03:14:19;;;;;;;9.30;5.10;;;13.40;99.90;;;;;;5066797;28;20035;-78
2021/05/09 03:16:45;;;;;;;11.43;6.18;;;13.40;99.90;;;;;;5066529;28;20021;-76
2021/05/09 03:19:10;;;;;;;6.47;5.03;;;13.30;99.90;;;;;;5061201;28;20021;-76
2021/05/09 03:21:36;;;;;;;10.18;6.20;;;13.30;99.90;;;;;;5062898;28;20023;-76
2021/05/09 03:24:02;;;;;;;6.63;5.43;;;13.20;99.90;;;;;;5066615;28;20390;-72
2021/05/09 03:26:28;;;;;;;8.18;5.80;;;13.20;99.90;;;;;;5062474;28;20584;-75
2021/05/09 03:28:53;;;;;;;6.65;5.68;;;13.20;99.90;;;;;;5055222;28;20033;-76
2021/05/09 03:31:19;;;;;;;8.50;5.75;;;13.20;99.90;;;;;;5066525;28;20086;-70
2021/05/09 03:33:45;;;;;;;7.80;5.85;;;13.10;99.90;;;;;;5070060;28;20084;-75
2021/05/09 03:36:10;;;;;;;13.23;6.35;;;13.10;99.90;;;;;;5068865;28;20025;-70
2021/05/09 03:38:36;;;;;;;10.73;5.30;;;13.10;99.90;;;;;;5049699;28;20079;-75
2021/05/09 03:41:02;;;;;;;8.13;6.07;;;12.90;99.90;;;;;;5062308;28;20036;-78
2021/05/09 03:43:27;;;;;;;9.73;6.40;;;12.90;99.90;;;;;;5063699;28;20025;-75
2021/05/09 03:45:53;;;;;;;12.30;5.72;;;13.00;99.90;;;;;;5060936;28;20051;-74
2021/05/09 03:48:19;;;;;;;8.07;5.47;;;12.90;99.90;;;;;;5065571;28;20034;-76
2021/05/09 03:50:44;;;;;;;12.15;5.97;;;13.00;99.90;;;;;;5059692;28;20059;-78
2021/05/09 03:53:10;;;;;;;8.98;5.63;;;13.00;99.90;;;;;;5063502;28;20082;-79
2021/05/09 03:55:35;;;;;;;8.40;6.35;;;13.00;99.90;;;;;;5067337;28;20497;-78
2021/05/09 03:58:01;;;;;;;8.90;6.13;;;13.10;99.90;;;;;;5063608;28;20143;-76
2021/05/09 04:00:27;;;;;;;9.50;5.75;;;13.00;99.90;;;;;;5063050;28;20536;-79
2021/05/09 04:02:53;;;;;;;7.47;5.78;;;13.00;99.90;;;;;;5063134;28;20021;-78
2021/05/09 04:05:18;;;;;;;13.13;6.80;;;13.10;99.90;;;;;;5067968;28;20428;-78
2021/05/09 04:07:44;;;;;;;10.43;5.78;;;13.10;99.90;;;;;;5063221;28;20082;-78
2021/05/09 04:10:10;;;;;;;8.40;6.45;;;13.10;99.90;;;;;;5061139;28;20102;-78
2021/05/09 04:12:36;;;;;;;12.77;6.20;;;13.10;99.90;;;;;;5065176;28;20027;-78
2021/05/09 04:15:02;;;;;;;10.30;6.20;;;13.10;99.90;;;;;;5060107;28;20028;-78
2021/05/09 04:17:27;;;;;;;10.02;5.95;;;13.00;99.90;;;;;;5065346;28;20029;-78
2021/05/09 04:19:53;;;;;;;7.07;5.68;;;13.10;99.90;;;;;;5061246;28;20041;-77
2021/05/09 04:22:19;;;;;;;8.27;5.93;;;13.10;99.90;;;;;;5067778;28;20036;-79
2021/05/09 04:24:44;;;;;;;9.02;6.50;;;13.10;99.90;;;;;;5063800;28;20029;-79
2021/05/09 04:27:10;;;;;;;13.98;5.55;;;13.10;99.90;;;;;;5064469;28;20036;-77
2021/05/09 04:29:36;;;;;;;6.85;5.63;;;13.00;99.90;;;;;;5070809;28;20071;-77
2021/05/09 04:32:02;;;;;;;6.75;5.45;;;13.00;99.90;;;;;;5067963;28;20028;-78
2021/05/09 04:34:28;;;;;;;12.68;6.45;;;13.00;99.90;;;;;;5056408;28;20030;-78
2021/05/09 04:36:53;;;;;;;9.57;5.00;;;13.00;99.90;;;;;;5061004;28;20021;-78
2021/05/09 04:39:19;;;;;;;8.85;5.15;;;13.00;99.90;;;;;;5064612;28;20025;-77
2021/05/09 04:41:44;;;;;;;9.35;5.60;;;13.00;99.90;;;;;;5044247;28;20051;-78
2021/05/09 04:44:10;;;;;;;8.00;4.90;;;13.10;99.90;;;;;;5063588;28;20017;-77
2021/05/09 04:46:36;;;;;;;8.73;5.45;;;13.10;99.90;;;;;;5068004;28;20040;-74
2021/05/09 04:49:01;;;;;;;10.70;5.60;;;13.00;99.90;;;;;;5051765;28;20029;-72
2021/05/09 04:51:27;;;;;;;10.35;6.25;;;13.10;99.90;;;;;;5064894;28;20521;-75
2021/05/09 04:53:52;;;;;;;8.80;5.63;;;13.10;99.90;;;;;;5057111;28;20497;-72
2021/05/09 04:56:18;;;;;;;8.88;5.85;;;13.20;99.90;;;;;;5059711;28;20091;-69
2021/05/09 04:58:44;;;;;;;8.57;4.72;;;13.20;99.90;;;;;;5066844;28;20024;-71
2021/05/09 05:01:12;;;;;;;6.55;5.28;;;13.20;99.90;;;;;;5069137;28;20107;-70
2021/05/09 05:03:38;;;;;;;9.02;5.68;;;13.20;99.90;;;;;;5059462;28;20036;-75
2021/05/09 05:06:04;;;;;;;7.88;5.63;;;13.30;99.90;;;;;;5067930;28;20021;-71
2021/05/09 05:08:32;;;;;;;14.07;5.18;;;13.30;99.90;;;;;;5071397;28;20035;-71
2021/05/09 05:10:59;;;;;;;10.13;5.18;;;13.30;99.90;;;;;;5057150;28;20040;-70
2021/05/09 05:13:31;;;;;;;8.43;5.57;;;13.60;99.90;;;;;;5056187;28;20032;-77
2021/05/09 05:16:02;;;;;;;5.27;4.80;;;13.60;99.90;;;;;;5067397;28;20013;-74
2021/05/09 05:18:28;;;;;;;7.38;5.47;;;13.70;99.90;;;;;;5059228;28;20436;-74
2021/05/09 05:20:56;;;;;;;8.27;5.07;;;13.70;99.90;;;;;;5060732;28;20081;-70
2021/05/09 05:23:23;;;;;;;7.53;4.95;;;13.80;99.90;;;;;;5063237;28;20036;-70
2021/05/09 05:25:49;;;;;;;9.82;5.22;;;13.90;99.90;;;;;;5050202;28;20021;-71
2021/05/09 05:28:15;;;;;;;5.68;4.82;;;13.90;99.90;;;;;;5063898;28;20141;-75
2021/05/09 05:30:43;;;;;;;7.88;4.97;;;13.90;99.90;;;;;;5060753;28;20025;-71
2021/05/09 05:33:30;;;;;;;5.70;5.03;;;14.00;99.90;;;;;;5062553;28;20032;-75
2021/05/09 05:35:57;;;;;;;9.63;5.55;;;14.00;99.90;;;;;;5065071;28;20362;-74
2021/05/09 05:38:23;;;;;;;9.77;5.00;;;14.00;99.90;;;;;;5070255;28;20035;-74
2021/05/09 05:40:56;;;;;;;6.60;4.78;;;14.00;99.90;;;;;;5058397;28;20055;-76
2021/05/09 05:43:29;;;;;;;8.68;5.65;;;14.10;99.90;;;;;;5058957;28;20029;-72
2021/05/09 05:45:56;;;;;;;8.85;4.85;;;14.10;99.90;;;;;;5064803;28;20087;-69
2021/05/09 05:48:23;;;;;;;5.55;4.57;;;14.20;99.90;;;;;;5059988;28;20028;-72
2021/05/09 05:50:50;;;;;;;6.93;4.70;;;14.20;99.90;;;;;;5062674;28;20032;-71
2021/05/09 05:53:21;;;;;;;7.35;4.63;;;14.30;99.90;;;;;;5058296;28;20101;-78
2021/05/09 05:55:47;;;;;;;6.35;4.53;;;14.40;99.90;;;;;;5061791;28;20025;-75
2021/05/09 05:58:16;;;;;;;5.63;4.07;;;14.50;99.90;;;;;;5059140;28;20060;-75
2021/05/09 06:00:42;;;;;;;7.88;4.25;;;14.30;99.90;;;;;;5061970;28;20033;-79
2021/05/09 06:03:09;;;;;;;6.65;4.05;;;14.50;99.90;;;;;;5065904;28;20086;-74
2021/05/09 06:05:34;;;;;;;5.13;4.28;;;14.50;99.90;;;;;;5063481;28;20016;-75
2021/05/09 06:08:00;;;;;;;7.85;4.18;;;14.60;99.90;;;;;;5067291;28;20130;-74
2021/05/09 06:10:26;;;;;;;5.82;4.00;;;14.60;99.90;;;;;;5068526;28;20043;-74
2021/05/09 06:12:54;;;;;;;5.90;4.07;;;14.70;99.90;;;;;;5059191;28;20029;-74
2021/05/09 06:15:20;;;;;;;5.88;4.13;;;14.70;99.90;;;;;;5055542;28;20032;-72
2021/05/09 06:17:45;;;;;;;7.20;4.82;;;14.70;99.90;;;;;;5062283;28;20017;-69
2021/05/09 06:20:12;;;;;;;4.47;4.05;;;14.80;99.90;;;;;;5067496;28;20047;-77
2021/05/09 06:22:38;;;;;;;7.25;4.20;;;14.90;99.90;;;;;;5061557;28;20093;-78
2021/05/09 06:25:05;;;;;;;7.15;4.30;;;15.00;99.90;;;;;;5071222;28;20055;-76
2021/05/09 06:27:30;;;;;;;6.07;4.05;;;15.10;99.90;;;;;;5061928;28;20496;-75
2021/05/09 06:29:56;;;;;;;4.72;3.97;;;15.20;99.90;;;;;;5059750;28;20041;-70
2021/05/09 06:32:22;;;;;;;4.95;3.67;;;15.30;99.90;;;;;;5063714;28;20103;-77
2021/05/09 06:34:48;;;;;;;12.98;3.90;;;15.30;99.90;;;;;;5062680;28;20047;-74
2021/05/09 06:37:14;;;;;;;3.60;3.28;;;15.40;99.90;;;;;;5072914;28;20036;-73
2021/05/09 06:39:40;;;;;;;3.72;3.22;;;15.60;99.90;;;;;;5063989;28;20060;-74
2021/05/09 06:42:06;;;;;;;6.13;3.45;;;15.70;99.90;;;;;;5058428;28;20071;-76
2021/05/09 06:44:36;;;;;;;8.05;4.25;;;15.80;99.90;;;;;;5060211;28;20516;-71
2021/05/09 06:47:02;;;;;;;4.15;3.13;;;15.90;99.90;;;;;;5063231;28;20031;-75
2021/05/09 06:49:29;;;;;;;3.80;3.25;;;16.00;99.90;;;;;;5061961;28;20037;-78
2021/05/09 06:51:56;;;;;;;4.32;3.33;;;16.20;99.90;;;;;;5067693;28;20028;-79
2021/05/09 06:54:22;;;;;;;6.50;3.65;;;16.30;99.90;;;;;;5060925;28;20016;-78
2021/05/09 06:56:49;;;;;;;4.45;3.30;;;16.30;99.90;;;;;;5081692;28;20032;-74
2021/05/09 06:59:15;;;;;;;6.55;3.50;;;16.50;99.90;;;;;;5067262;28;20370;-79
2021/05/09 07:01:41;;;;;;;5.88;3.40;;;16.60;99.90;;;;;;5063884;28;20081;-80
2021/05/09 07:04:07;;;;;;;6.38;3.90;;;16.90;99.90;;;;;;5068513;28;20016;-80
2021/05/09 07:06:33;;;;;;;3.63;3.33;;;17.00;99.90;;;;;;5067225;28;20033;-73
2021/05/09 07:08:59;;;;;;;4.20;3.20;;;17.10;99.90;;;;;;5063199;28;20029;-77
2021/05/09 07:11:26;;;;;;;4.53;3.03;;;17.20;99.90;;;;;;5069627;28;20079;-80
2021/05/09 07:13:52;;;;;;;5.78;2.83;;;17.30;99.90;;;;;;5072602;28;20024;-80
2021/05/09 07:16:18;;;;;;;4.20;3.28;;;17.40;99.90;;;;;;5058216;28;20051;-81
2021/05/09 07:18:44;;;;;;;6.70;3.38;;;17.50;99.90;;;;;;5061507;28;20960;-77
2021/05/09 07:21:15;;;;;;;3.45;2.92;;;17.80;99.90;;;;;;5061531;28;20044;-77
2021/05/09 07:23:46;;;;;;;3.65;2.75;;;17.90;99.90;;;;;;5076969;28;20021;-80
2021/05/09 07:26:13;;;;;;;4.47;2.90;;;17.90;99.90;;;;;;5064768;28;20066;-82
2021/05/09 07:28:38;;;;;;;3.83;2.92;;;18.00;99.90;;;;;;5058777;28;20037;-81
2021/05/09 07:31:04;;;;;;;5.40;3.40;;;18.10;99.90;;;;;;5049372;28;20098;-82
2021/05/09 07:33:30;;;;;;;4.70;3.25;;;18.00;99.90;;;;;;5066739;28;20551;-80
2021/05/09 07:35:55;;;;;;;5.55;3.50;;;18.00;99.90;;;;;;5056149;28;20435;-77
2021/05/09 07:38:21;;;;;;;5.25;2.88;;;18.00;99.90;;;;;;5058526;28;20504;-81
2021/05/09 07:40:46;;;;;;;6.18;3.30;;;18.10;99.90;;;;;;5067472;28;20028;-74
2021/05/09 07:43:16;;;;;;;2.70;2.50;;;18.00;99.90;;;;;;5067738;28;20033;-81
2021/05/09 07:45:43;;;;;;;7.97;3.35;;;18.10;99.90;;;;;;5061670;28;20040;-82
2021/05/09 07:48:09;;;;;;;4.80;3.45;;;18.30;99.90;;;;;;5064417;28;20032;-80
2021/05/09 07:50:36;;;;;;;6.00;3.08;;;18.40;99.90;;;;;;5070232;28;20491;-81
2021/05/09 07:53:02;;;;;;;3.70;2.88;;;18.60;99.90;;;;;;5065422;28;20157;-81
2021/05/09 07:55:28;;;;;;;4.13;2.78;;;18.70;99.90;;;;;;5063847;28;20036;-81
2021/05/09 07:57:54;;;;;;;3.72;2.78;;;18.90;99.90;;;;;;5075500;28;20024;-83
2021/05/09 08:00:21;;;;;;;3.28;2.90;;;18.90;99.90;;;;;;5042240;28;20547;-81
2021/05/09 08:02:49;;;;;;;4.35;2.80;;;19.20;99.90;;;;;;5063670;28;20048;-81
2021/05/09 08:05:19;;;;;;;4.30;3.00;;;19.30;99.90;;;;;;5064561;28;20029;-79
2021/05/09 08:07:52;;;;;;;3.63;2.70;;;19.50;99.90;;;;;;5063235;28;20028;-84
2021/05/09 08:10:19;;;;;;;3.92;2.70;;;19.70;99.90;;;;;;5068666;28;20520;-83
2021/05/09 08:12:44;;;;;;;2.90;2.45;;;19.80;99.90;;;;;;5064193;28;20108;-82
2021/05/09 08:15:10;;;;;;;3.00;2.70;;;19.90;99.90;;;;;;5062901;28;20486;-78
2021/05/09 08:17:36;;;;;;;4.07;3.28;;;20.10;99.90;;;;;;5072994;28;20023;-83
2021/05/09 08:20:06;;;;;;;4.88;2.47;;;20.30;99.90;;;;;;5067797;28;20025;-78
2021/05/09 08:22:32;;;;;;;2.70;2.50;;;20.30;99.90;;;;;;5064932;28;20066;-83
2021/05/09 08:25:00;;;;;;;4.55;3.03;;;20.40;99.90;;;;;;5064612;28;20477;-82
2021/05/09 08:27:33;;;;;;;3.22;2.20;;;20.60;99.90;;;;;;5062801;28;20103;-87
2021/05/09 08:30:01;;;;;;;5.72;2.33;;;20.70;99.90;;;;;;5066107;28;20642;-83
2021/05/09 08:32:27;;;;;;;2.58;2.28;;;21.00;99.90;;;;;;5044381;28;21276;-86
2021/05/09 08:34:54;;;;;;;3.58;2.67;;;21.00;99.90;;;;;;5067906;28;20451;-85
2021/05/09 08:37:20;;;;;;;2.85;2.33;;;21.10;99.90;;;;;;5063255;28;20037;-84
2021/05/09 08:39:46;;;;;;;4.13;2.90;;;21.20;99.90;;;;;;5068128;28;20020;-82
2021/05/09 08:42:17;;;;;;;2.78;2.55;;;21.40;99.90;;;;;;5055326;28;20013;-88
2021/05/09 08:44:47;;;;;;;3.13;2.63;;;21.70;99.90;;;;;;5076689;28;20408;-88
2021/05/09 08:47:15;;;;;;;6.60;2.80;;;21.70;99.90;;;;;;5063198;28;20028;-87
2021/05/09 08:49:41;;;;;;;3.00;2.70;;;21.80;99.90;;;;;;5068346;28;20016;-70
2021/05/09 08:52:09;;;;;;;4.70;2.63;;;21.90;99.90;;;;;;5071131;28;20024;-85
2021/05/09 08:54:36;;;;;;;3.05;2.10;;;22.10;99.90;;;;;;5066330;28;20024;-75
2021/05/09 08:57:05;;;;;;;3.83;2.17;;;22.20;99.90;;;;;;5067854;28;20036;-82
2021/05/09 08:59:30;;;;;;;2.25;2.05;;;22.40;99.90;;;;;;5056500;28;20032;-77
2021/05/09 09:01:57;;;;;;;3.72;2.22;;;22.40;99.90;;;;;;5059452;28;20437;-80
2021/05/09 09:04:23;;;;;;;2.30;2.05;;;22.40;99.90;;;;;;5059084;28;20075;-87
2021/05/09 09:06:53;;;;;;;3.50;2.08;;;22.40;99.90;;;;;;5074090;28;20029;-87
2021/05/09 09:09:23;;;;;;;2.50;2.05;;;22.40;99.90;;;;;;5087030;28;20047;-86
2021/05/09 09:12:00;;;;;;;4.55;2.08;;;22.30;99.90;;;;;;5065863;28;20032;-84
2021/05/09 09:14:27;;;;;;;3.65;1.95;;;22.30;99.90;;;;;;5064817;28;20017;-85
2021/05/09 09:17:28;;;;;;;3.15;2.55;;;22.20;99.90;;;;;;5068195;28;20654;-87
2021/05/09 09:20:08;;;;;;;2.17;1.98;;;22.10;99.90;;;;;;4983014;28;20105;-83
2021/05/09 09:22:57;;;;;;;3.47;2.30;;;22.20;99.90;;;;;;5060514;28;20036;-86
2021/05/09 09:25:27;;;;;;;3.05;1.90;;;22.30;99.90;;;;;;5061571;28;20031;-76
2021/05/09 09:27:55;;;;;;;2.33;2.13;;;22.30;99.90;;;;;;5067542;28;20036;-85
2021/05/09 09:30:23;;;;;;;7.32;1.95;;;22.20;99.90;;;;;;5067870;28;20025;-86
2021/05/09 09:33:09;;;;;;;5.03;2.20;;;22.30;99.90;;;;;;5060490;28;20420;-81
2021/05/09 09:35:35;;;;;;;3.42;2.13;;;22.20;99.90;;;;;;5060018;28;20481;-73
2021/05/09 09:38:19;;;;;;;3.67;2.05;;;22.30;99.90;;;;;;5063143;28;20370;-76
2021/05/09 09:41:07;;;;;;;4.22;2.42;;;22.40;99.90;;;;;;5069521;28;20028;-71
2021/05/09 09:43:33;;;;;;;4.10;2.28;;;22.40;99.90;;;;;;5068874;28;20082;-78
2021/05/09 09:45:58;;;;;;;2.22;2.03;;;22.60;99.90;;;;;;5056991;28;20029;-71
2021/05/09 09:48:40;;;;;;;5.28;2.10;;;22.70;99.90;;;;;;5068364;28;20017;-71
2021/05/09 09:51:09;;;;;;;3.05;1.98;;;22.70;99.90;;;;;;5069877;28;20029;-77
2021/05/09 09:53:39;;;;;;;6.75;2.50;;;22.70;99.90;;;;;;5064676;28;20029;-78
2021/05/09 09:56:10;;;;;;;4.30;2.40;;;22.70;99.90;;;;;;5072494;28;20025;-72
2021/05/09 09:58:57;;;;;;;8.32;2.28;;;22.70;99.90;;;;;;5073549;28;20461;-72
2021/05/09 10:01:26;;;;;;;3.90;2.00;;;22.70;99.90;;;;;;5073219;28;20028;-72
2021/05/09 10:03:56;;;;;;;2.42;1.85;;;22.80;99.90;;;;;;5079496;28;20017;-73
2021/05/09 10:06:22;;;;;;;6.07;2.22;;;22.90;99.90;;;;;;5074493;28;20020;-72
2021/05/09 10:08:49;;;;;;;3.90;2.00;;;23.00;99.90;;;;;;5071960;28;20032;-73
2021/05/09 10:11:15;;;;;;;5.80;1.92;;;23.10;99.90;;;;;;5075145;28;20075;-79
2021/05/09 10:13:41;;;;;;;3.00;2.00;;;23.00;99.90;;;;;;5076223;28;20024;-78
2021/05/09 10:16:08;;;;;;;3.70;2.17;;;23.00;99.90;;;;;;5073592;28;20040;-73
2021/05/09 10:18:37;;;;;;;3.55;2.10;;;23.00;99.90;;;;;;5057052;28;20464;-74
2021/05/09 10:21:03;;;;;;;2.97;2.30;;;23.10;99.90;;;;;;5066688;28;20157;-76
2021/05/09 10:23:28;;;;;;;3.15;2.50;;;23.00;99.90;;;;;;5093188;28;20020;-72
2021/05/09 10:25:57;;;;;;;5.55;2.42;;;23.00;99.90;;;;;;5073015;28;20046;-75
2021/05/09 10:28:25;;;;;;;3.50;2.05;;;23.10;99.90;;;;;;5070568;28;20016;-75
2021/05/09 10:30:56;;;;;;;4.28;2.20;;;23.40;99.90;;;;;;5085871;28;20043;-75
2021/05/09 10:33:40;;;;;;;2.70;2.22;;;23.80;99.90;;;;;;5067799;28;20121;-74
2021/05/09 10:36:08;;;;;;;3.95;2.35;;;24.50;99.90;;;;;;5060823;28;20488;-76
2021/05/09 10:39:12;;;;;;;5.60;2.28;;;24.40;99.90;;;;;;5067724;28;20032;-72
2021/05/09 10:41:53;;;;;;;5.03;2.22;;;24.50;99.90;;;;;;5059479;28;20044;-73
2021/05/09 10:44:37;;;;;;;4.03;2.30;;;25.00;99.90;;;;;;5063575;28;20033;-74
2021/05/09 10:47:05;;;;;;;2.53;2.30;;;25.20;99.90;;;;;;5065548;28;20071;-76
2021/05/09 10:49:31;;;;;;;4.65;2.45;;;25.40;99.90;;;;;;5063172;28;20058;-77
2021/05/09 10:51:57;;;;;;;2.97;1.80;;;25.40;99.90;;;;;;5060854;28;20028;-74
2021/05/09 10:54:24;;;;;;;4.63;2.28;;;25.80;99.90;;;;;;5050482;28;20025;-73
2021/05/09 10:56:52;;;;;;;4.10;1.98;;;25.90;99.90;;;;;;5067292;28;20040;-72
2021/05/09 10:59:18;;;;;;;5.80;2.10;;;26.00;99.90;;;;;;5074116;28;20436;-72
2021/05/09 11:01:44;;;;;;;2.42;1.80;;;25.90;99.90;;;;;;5063543;28;20017;-73
2021/05/09 11:04:14;;;;;;;2.80;2.30;;;26.00;99.90;;;;;;5050381;28;20032;-73
2021/05/09 11:06:48;;;;;;;5.18;1.80;;;26.00;99.90;;;;;;5065625;28;20532;-73
2021/05/09 11:09:16;;;;;;;3.08;1.95;;;26.00;99.90;;;;;;5063214;28;20039;-77
2021/05/09 11:11:42;;;;;;;4.43;2.28;;;26.00;99.90;;;;;;5061887;28;20140;-76
2021/05/09 11:14:09;;;;;;;2.55;1.92;;;26.30;99.90;;;;;;5073707;28;20519;-74
2021/05/09 11:16:42;;;;;;;5.60;2.45;;;26.30;99.90;;;;;;5066544;28;20023;-73
2021/05/09 11:19:09;;;;;;;2.05;1.83;;;26.40;99.90;;;;;;5043418;28;20038;-77
2021/05/09 11:21:50;;;;;;;2.83;2.05;;;26.60;99.90;;;;;;5061181;28;20028;-77
2021/05/09 11:24:24;;;;;;;2.80;2.10;;;26.60;99.90;;;;;;5066625;28;20162;-76
2021/05/09 11:26:55;;;;;;;2.20;2.00;;;26.40;99.90;;;;;;5048920;28;20017;-73
2021/05/09 11:29:23;;;;;;;2.78;2.40;;;26.30;99.90;;;;;;5070061;28;20025;-73
2021/05/09 11:31:50;;;;;;;4.10;2.40;;;26.20;99.90;;;;;;5065813;28;20115;-73
2021/05/09 11:34:18;;;;;;;4.47;2.15;;;26.10;99.90;;;;;;5056995;28;20037;-73
2021/05/09 11:36:46;;;;;;;3.90;1.90;;;26.00;99.90;;;;;;5058280;28;20036;-73
2021/05/09 11:39:17;;;;;;;7.22;2.80;;;26.00;99.90;;;;;;5059827;28;20035;-72
2021/05/09 11:42:04;;;;;;;8.27;2.28;;;26.00;99.90;;;;;;5073609;28;20029;-72
2021/05/09 11:44:42;;;;;;;5.00;2.38;;;25.90;99.90;;;;;;5050971;28;20053;-72
2021/05/09 11:47:12;;;;;;;4.63;2.08;;;25.70;99.90;;;;;;5062949;28;20029;-72
2021/05/09 11:49:40;;;;;;;3.97;2.10;;;25.70;99.90;;;;;;5071267;28;20047;-74
2021/05/09 11:52:11;;;;;;;3.28;1.83;;;25.70;99.90;;;;;;5046806;28;20016;-85
2021/05/09 11:54:45;;;;;;;4.97;2.05;;;25.60;99.90;;;;;;5065740;28;20067;-73
2021/05/09 11:57:11;;;;;;;2.60;1.90;;;25.50;99.90;;;;;;5070785;28;20477;-72
2021/05/09 11:59:44;;;;;;;4.65;2.10;;;25.40;99.90;;;;;;5069167;28;20035;-75
2021/05/09 12:02:15;;;;;;;2.88;2.00;;;25.30;99.90;;;;;;5048061;28;20021;-71
2021/05/09 12:04:51;;;;;;;6.43;2.20;;;25.20;99.90;;;;;;5067685;28;20032;-72
2021/05/09 12:07:42;;;;;;;4.53;2.10;;;25.10;99.90;;;;;;5055761;28;20504;-72
2021/05/09 12:10:25;;;;;;;4.10;2.40;;;25.00;99.90;;;;;;5052285;28;20524;-71
2021/05/09 12:13:03;;;;;;;4.97;2.28;;;24.90;99.90;;;;;;5065687;28;20096;-72
2021/05/09 12:15:37;;;;;;;3.45;2.17;;;24.90;99.90;;;;;;5063754;28;20493;-71
2021/05/09 12:18:03;;;;;;;4.13;2.40;;;24.80;99.90;;;;;;5061925;28;20024;-71
2021/05/09 12:20:36;;;;;;;2.65;2.42;;;24.70;99.90;;;;;;5063508;28;20025;-71
2021/05/09 12:23:05;;;;;;;4.70;2.08;;;24.70;99.90;;;;;;5066836;28;20024;-71
2021/05/09 12:25:42;;;;;;;5.90;2.05;;;24.50;99.90;;;;;;5062153;28;20355;-72
2021/05/09 12:28:10;;;;;;;7.07;2.65;;;24.40;99.90;;;;;;5066001;28;20027;-76
2021/05/09 12:30:38;;;;;;;5.65;2.50;;;24.30;99.90;;;;;;5060358;28;20056;-74
2021/05/09 12:33:04;;;;;;;4.57;2.83;;;24.10;99.90;;;;;;5075989;28;20020;-71
2021/05/09 12:35:41;;;;;;;5.28;2.63;;;24.00;99.90;;;;;;5074174;28;20016;-71
2021/05/09 12:38:06;;;;;;;5.00;2.33;;;24.00;99.90;;;;;;5062779;28;20827;-71
2021/05/09 12:40:34;;;;;;;3.70;2.20;;;24.00;99.90;;;;;;5054316;28;20046;-76
2021/05/09 12:43:09;;;;;;;4.70;2.42;;;24.00;99.90;;;;;;5060965;28;20028;-78
2021/05/09 12:45:46;;;;;;;3.13;2.92;;;24.20;99.90;;;;;;5057540;28;20586;-72
2021/05/09 12:48:18;;;;;;;7.68;2.40;;;24.40;99.90;;;;;;5064474;28;20021;-71
2021/05/09 12:50:54;;;;;;;2.63;2.43;;;24.50;99.90;;;;;;5057332;28;20043;-73